Terminal Aerodrome Forecast
Issued by NWS Brownsville, TX

Home | Current Version | Previous Version | Text Only | Print | Product List | Glossary On
Versions: 1 2 3 4 5 6 7 8 9 10 11 12 13 14 15 16 17 18 19 20
000
FTUS44 KBRO 101500 AAA
TAFMFE
TAF AMD
KMFE 101533Z 1016/1112 07009G16KT P6SM VCSH FEW028 BKN100 BKN120
      TEMPO 1016/1018 2SM +SHRA OVC035
     FM101800 13011KT P6SM VCTS SCT030 OVC050CB
      TEMPO 1018/1021 4SM TSRA BKN040CB
     FM102100 13012KT P6SM VCTS SCT015 OVC030CB
      TEMPO 1021/1024 6SM -TSRA BKN015CB
     FM110000 13011KT P6SM OVC025
     FM110300 12007KT P6SM OVC100=

USA.gov is the U.S. government's official web portal to all federal, state and local government web resources and services.